ASA69 PAKT-PAJN
Flight info
| Callsign | ASA69 |
|---|---|
| Flight time | 0h 52m |
| Altitude | 28000 |
| Route | CETK6 ANN DOOZI LVD R1055 STVNS SSR |
| Aircraft | B737/M-SDE2E3FGHIRWXY/LB1 |
Departure
| Time | 2026-04-16 21:29 |
|---|---|
| Airport | Ketchikan International Airport (PAKT) |
Arrival
| Time | 2026-04-16 22:21 |
|---|---|
| Airport | Juneau International Airport (PAJN) |
| Time | Latitude | Longitude | Altitude | Speed | Heading |
|---|---|---|---|---|---|
| 2026-04-16 20:57 | 55.35663 | -131.71034 | 73 ft | 0 kts | 49° |
| 2026-04-16 21:21 | 55.35663 | -131.71036 | 73 ft | 1 kts | 49° |
| 2026-04-16 21:22 | 55.35653 | -131.71056 | 73 ft | 2 kts | 49° |
| 2026-04-16 21:22 | 55.35643 | -131.71075 | 73 ft | 2 kts | 49° |
| 2026-04-16 21:22 | 55.35633 | -131.71095 | 73 ft | 2 kts | 49° |
| 2026-04-16 21:22 | 55.35626 | -131.71109 | 73 ft | 0 kts | 49° |
| 2026-04-16 21:23 | 55.35616 | -131.71126 | 74 ft | 2 kts | 20° |
| 2026-04-16 21:23 | 55.35601 | -131.71130 | 74 ft | 2 kts | 352° |
| 2026-04-16 21:23 | 55.35587 | -131.71121 | 75 ft | 2 kts | 323° |
| 2026-04-16 21:23 | 55.35582 | -131.71112 | 74 ft | 1 kts | 311° |
| 2026-04-16 21:24 | 55.35579 | -131.71109 | 74 ft | 0 kts | 314° |
| 2026-04-16 21:24 | 55.35580 | -131.71109 | 74 ft | 0 kts | 314° |
| 2026-04-16 21:25 | 55.35591 | -131.71130 | 75 ft | 9 kts | 314° |
| 2026-04-16 21:25 | 55.35670 | -131.71272 | 76 ft | 22 kts | 315° |
| 2026-04-16 21:25 | 55.35784 | -131.71472 | 75 ft | 23 kts | 314° |
| 2026-04-16 21:26 | 55.35899 | -131.71677 | 75 ft | 24 kts | 313° |
| 2026-04-16 21:26 | 55.36021 | -131.71895 | 76 ft | 23 kts | 314° |
| 2026-04-16 21:26 | 55.36118 | -131.72067 | 76 ft | 16 kts | 314° |
| 2026-04-16 21:26 | 55.36179 | -131.72191 | 74 ft | 9 kts | 292° |
| 2026-04-16 21:27 | 55.36183 | -131.72218 | 76 ft | 0 kts | 278° |
| 2026-04-16 21:27 | 55.36182 | -131.72258 | 78 ft | 6 kts | 253° |
| 2026-04-16 21:27 | 55.36169 | -131.72296 | 80 ft | 3 kts | 235° |
| 2026-04-16 21:27 | 55.36132 | -131.72357 | 83 ft | 8 kts | 182° |
| 2026-04-16 21:28 | 55.36079 | -131.72284 | 81 ft | 15 kts | 135° |
| 2026-04-16 21:28 | 55.35874 | -131.71930 | 79 ft | 76 kts | 135° |
| 2026-04-16 21:28 | 55.35345 | -131.71019 | 83 ft | 135 kts | 135° |
| 2026-04-16 21:28 | 55.34618 | -131.69786 | 538 ft | 147 kts | 135° |
| 2026-04-16 21:29 | 55.33916 | -131.68500 | 1192 ft | 149 kts | 133° |
| 2026-04-16 21:29 | 55.33196 | -131.67212 | 1799 ft | 155 kts | 135° |
| 2026-04-16 21:29 | 55.32408 | -131.65845 | 2357 ft | 164 kts | 136° |
| 2026-04-16 21:29 | 55.31576 | -131.64410 | 2884 ft | 177 kts | 136° |
| 2026-04-16 21:30 | 55.30671 | -131.62866 | 3440 ft | 189 kts | 138° |
| 2026-04-16 21:30 | 55.29566 | -131.61475 | 3927 ft | 204 kts | 155° |
| 2026-04-16 21:30 | 55.28160 | -131.60805 | 4380 ft | 221 kts | 176° |
| 2026-04-16 21:30 | 55.26576 | -131.60878 | 4901 ft | 236 kts | 189° |
| 2026-04-16 21:31 | 55.24984 | -131.61700 | 5556 ft | 243 kts | 207° |
| 2026-04-16 21:31 | 55.23631 | -131.63380 | 6308 ft | 245 kts | 227° |
| 2026-04-16 21:31 | 55.22573 | -131.65717 | 7062 ft | 248 kts | 240° |
| 2026-04-16 21:31 | 55.21866 | -131.68424 | 7860 ft | 246 kts | 259° |
| 2026-04-16 21:32 | 55.21748 | -131.71344 | 8700 ft | 242 kts | 278° |
| 2026-04-16 21:32 | 55.22068 | -131.74193 | 9569 ft | 241 kts | 289° |
| 2026-04-16 21:32 | 55.22725 | -131.76816 | 10423 ft | 239 kts | 302° |
| 2026-04-16 21:32 | 55.23647 | -131.79285 | 11065 ft | 250 kts | 305° |
| 2026-04-16 21:33 | 55.24633 | -131.81868 | 11660 ft | 262 kts | 304° |
| 2026-04-16 21:33 | 55.25631 | -131.84575 | 12425 ft | 270 kts | 304° |
| 2026-04-16 21:33 | 55.26666 | -131.87277 | 13353 ft | 270 kts | 309° |
| 2026-04-16 21:33 | 55.28023 | -131.89482 | 14253 ft | 272 kts | 327° |
| 2026-04-16 21:34 | 55.29721 | -131.90922 | 15167 ft | 275 kts | 335° |
| 2026-04-16 21:34 | 55.31491 | -131.92181 | 16010 ft | 280 kts | 335° |
| 2026-04-16 21:34 | 55.33276 | -131.93483 | 16860 ft | 283 kts | 334° |
| 2026-04-16 21:34 | 55.35094 | -131.94873 | 17712 ft | 286 kts | 333° |
| 2026-04-16 21:35 | 55.36894 | -131.96294 | 18555 ft | 288 kts | 333° |
| 2026-04-16 21:35 | 55.38693 | -131.97729 | 19352 ft | 291 kts | 332° |
| 2026-04-16 21:35 | 55.40535 | -131.99203 | 20138 ft | 294 kts | 332° |
| 2026-04-16 21:35 | 55.42400 | -132.00696 | 20879 ft | 298 kts | 332° |
| 2026-04-16 21:36 | 55.44273 | -132.02194 | 21588 ft | 302 kts | 332° |
| 2026-04-16 21:36 | 55.46182 | -132.03720 | 22275 ft | 305 kts | 332° |
| 2026-04-16 21:36 | 55.48112 | -132.05269 | 22985 ft | 308 kts | 332° |
| 2026-04-16 21:36 | 55.50064 | -132.06838 | 23680 ft | 310 kts | 332° |
| 2026-04-16 21:37 | 55.52014 | -132.08405 | 24341 ft | 313 kts | 332° |
| 2026-04-16 21:37 | 55.53993 | -132.09996 | 25040 ft | 314 kts | 332° |
| 2026-04-16 21:37 | 55.55983 | -132.11594 | 25669 ft | 316 kts | 332° |
| 2026-04-16 21:37 | 55.57969 | -132.13194 | 26194 ft | 321 kts | 332° |
| 2026-04-16 21:38 | 55.60012 | -132.14845 | 26725 ft | 326 kts | 331° |
| 2026-04-16 21:38 | 55.62076 | -132.16513 | 27284 ft | 329 kts | 331° |
| 2026-04-16 21:38 | 55.64133 | -132.18268 | 27833 ft | 330 kts | 328° |
| 2026-04-16 21:38 | 55.66131 | -132.20270 | 28235 ft | 333 kts | 326° |
| 2026-04-16 21:39 | 55.68093 | -132.22397 | 28250 ft | 335 kts | 324° |
| 2026-04-16 21:39 | 55.72024 | -132.26698 | 28254 ft | 331 kts | 325° |
| 2026-04-16 21:40 | 55.75939 | -132.30930 | 28249 ft | 331 kts | 325° |
| 2026-04-16 21:40 | 55.79888 | -132.35172 | 28246 ft | 332 kts | 325° |
| 2026-04-16 21:41 | 55.83819 | -132.39389 | 28240 ft | 332 kts | 325° |
| 2026-04-16 21:41 | 55.87741 | -132.43607 | 28242 ft | 331 kts | 325° |
| 2026-04-16 21:42 | 55.91683 | -132.47853 | 28245 ft | 331 kts | 325° |
| 2026-04-16 21:42 | 55.95613 | -132.52097 | 28256 ft | 332 kts | 325° |
| 2026-04-16 21:43 | 55.99557 | -132.56364 | 28255 ft | 331 kts | 325° |
| 2026-04-16 21:43 | 56.03475 | -132.60614 | 28252 ft | 331 kts | 325° |
| 2026-04-16 21:44 | 56.07388 | -132.64874 | 28243 ft | 330 kts | 325° |
| 2026-04-16 21:44 | 56.11297 | -132.69135 | 28235 ft | 330 kts | 324° |
| 2026-04-16 21:45 | 56.15220 | -132.73424 | 28239 ft | 331 kts | 324° |
| 2026-04-16 21:45 | 56.19148 | -132.77731 | 28244 ft | 331 kts | 324° |
| 2026-04-16 21:46 | 56.23050 | -132.82016 | 28239 ft | 330 kts | 324° |
| 2026-04-16 21:46 | 56.26949 | -132.86308 | 28240 ft | 330 kts | 324° |
| 2026-04-16 21:47 | 56.30859 | -132.90626 | 28236 ft | 330 kts | 324° |
| 2026-04-16 21:47 | 56.34749 | -132.94930 | 28236 ft | 330 kts | 324° |
| 2026-04-16 21:48 | 56.38632 | -132.99234 | 28236 ft | 330 kts | 324° |
| 2026-04-16 21:48 | 56.42527 | -133.03564 | 28234 ft | 330 kts | 324° |
| 2026-04-16 21:49 | 56.46511 | -133.07758 | 28232 ft | 332 kts | 329° |
| 2026-04-16 21:49 | 56.50825 | -133.10706 | 28235 ft | 336 kts | 337° |
| 2026-04-16 21:50 | 56.55333 | -133.13107 | 28231 ft | 337 kts | 338° |
| 2026-04-16 21:50 | 56.59813 | -133.15488 | 28233 ft | 337 kts | 337° |
| 2026-04-16 21:51 | 56.64294 | -133.17923 | 28231 ft | 337 kts | 337° |
| 2026-04-16 21:51 | 56.68747 | -133.20369 | 28232 ft | 336 kts | 337° |
| 2026-04-16 21:52 | 56.73206 | -133.22833 | 28236 ft | 336 kts | 337° |
| 2026-04-16 21:52 | 56.77673 | -133.25308 | 28231 ft | 336 kts | 337° |
| 2026-04-16 21:53 | 56.82129 | -133.27785 | 28221 ft | 336 kts | 337° |
| 2026-04-16 21:53 | 56.86583 | -133.30269 | 28209 ft | 336 kts | 337° |
| 2026-04-16 21:54 | 56.91056 | -133.32768 | 28188 ft | 337 kts | 336° |
| 2026-04-16 21:54 | 56.95480 | -133.35248 | 28176 ft | 335 kts | 336° |
| 2026-04-16 21:55 | 56.99928 | -133.37746 | 28164 ft | 335 kts | 337° |
| 2026-04-16 21:55 | 57.04380 | -133.40251 | 28165 ft | 335 kts | 337° |
| 2026-04-16 21:56 | 57.08811 | -133.42749 | 28167 ft | 335 kts | 336° |
| 2026-04-16 21:56 | 57.13271 | -133.45274 | 28168 ft | 336 kts | 336° |
| 2026-04-16 21:57 | 57.17720 | -133.47798 | 28169 ft | 336 kts | 336° |
| 2026-04-16 21:57 | 57.22165 | -133.50320 | 28171 ft | 334 kts | 336° |
| 2026-04-16 21:58 | 57.26624 | -133.52861 | 28180 ft | 334 kts | 336° |
| 2026-04-16 21:58 | 57.31041 | -133.55380 | 28186 ft | 333 kts | 336° |
| 2026-04-16 21:59 | 57.35492 | -133.57935 | 28192 ft | 333 kts | 336° |
| 2026-04-16 21:59 | 57.39894 | -133.60461 | 28197 ft | 333 kts | 336° |
| 2026-04-16 21:59 | 57.42147 | -133.61766 | 28204 ft | 344 kts | 336° |
| 2026-04-16 22:00 | 57.44451 | -133.63109 | 28205 ft | 358 kts | 336° |
| 2026-04-16 22:00 | 57.46879 | -133.64525 | 28062 ft | 369 kts | 336° |
| 2026-04-16 22:00 | 57.49335 | -133.65944 | 27797 ft | 368 kts | 336° |
| 2026-04-16 22:00 | 57.51781 | -133.67348 | 27384 ft | 364 kts | 336° |
| 2026-04-16 22:01 | 57.54158 | -133.68710 | 26803 ft | 360 kts | 336° |
| 2026-04-16 22:01 | 57.56540 | -133.70079 | 26328 ft | 353 kts | 336° |
| 2026-04-16 22:01 | 57.58846 | -133.71408 | 25797 ft | 348 kts | 336° |
| 2026-04-16 22:01 | 57.61122 | -133.72728 | 25255 ft | 346 kts | 337° |
| 2026-04-16 22:02 | 57.63426 | -133.74072 | 24710 ft | 349 kts | 337° |
| 2026-04-16 22:02 | 57.65736 | -133.75423 | 24161 ft | 346 kts | 337° |
| 2026-04-16 22:02 | 57.67983 | -133.76733 | 23614 ft | 341 kts | 337° |
| 2026-04-16 22:02 | 57.70226 | -133.78041 | 23073 ft | 337 kts | 337° |
| 2026-04-16 22:03 | 57.72444 | -133.79340 | 22528 ft | 332 kts | 337° |
| 2026-04-16 22:03 | 57.74611 | -133.80609 | 22002 ft | 328 kts | 337° |
| 2026-04-16 22:03 | 57.76792 | -133.81891 | 21479 ft | 329 kts | 337° |
| 2026-04-16 22:03 | 57.78986 | -133.83188 | 20937 ft | 334 kts | 337° |
| 2026-04-16 22:04 | 57.81170 | -133.84477 | 20402 ft | 332 kts | 337° |
| 2026-04-16 22:04 | 57.83342 | -133.85754 | 19862 ft | 327 kts | 337° |
| 2026-04-16 22:04 | 57.85489 | -133.87016 | 19360 ft | 322 kts | 338° |
| 2026-04-16 22:04 | 57.87611 | -133.88268 | 18847 ft | 319 kts | 338° |
| 2026-04-16 22:05 | 57.89731 | -133.89525 | 18341 ft | 324 kts | 338° |
| 2026-04-16 22:05 | 57.91824 | -133.91029 | 17787 ft | 321 kts | 330° |
| 2026-04-16 22:05 | 57.93594 | -133.93411 | 17274 ft | 311 kts | 311° |
| 2026-04-16 22:05 | 57.94764 | -133.96736 | 16737 ft | 306 kts | 297° |
| 2026-04-16 22:06 | 57.95671 | -134.00311 | 16209 ft | 303 kts | 296° |
| 2026-04-16 22:06 | 57.97518 | -134.07486 | 15145 ft | 308 kts | 297° |
| 2026-04-16 22:06 | 57.98469 | -134.11078 | 14608 ft | 305 kts | 297° |
| 2026-04-16 22:07 | 57.99401 | -134.14625 | 14096 ft | 301 kts | 297° |
| 2026-04-16 22:07 | 58.00321 | -134.18133 | 13608 ft | 298 kts | 297° |
| 2026-04-16 22:07 | 58.01204 | -134.21576 | 13082 ft | 295 kts | 296° |
| 2026-04-16 22:07 | 58.02099 | -134.25030 | 12579 ft | 293 kts | 296° |
| 2026-04-16 22:08 | 58.03016 | -134.28471 | 12056 ft | 296 kts | 296° |
| 2026-04-16 22:08 | 58.03935 | -134.31967 | 11543 ft | 299 kts | 296° |
| 2026-04-16 22:08 | 58.04829 | -134.35414 | 11035 ft | 296 kts | 295° |
| 2026-04-16 22:08 | 58.05716 | -134.38887 | 10591 ft | 290 kts | 295° |
| 2026-04-16 22:09 | 58.06591 | -134.42241 | 10356 ft | 278 kts | 295° |
| 2026-04-16 22:09 | 58.07416 | -134.45435 | 10248 ft | 264 kts | 295° |
| 2026-04-16 22:09 | 58.08230 | -134.48450 | 10144 ft | 251 kts | 296° |
| 2026-04-16 22:09 | 58.08993 | -134.51349 | 9987 ft | 249 kts | 295° |
| 2026-04-16 22:10 | 58.09742 | -134.54291 | 9636 ft | 250 kts | 294° |
| 2026-04-16 22:10 | 58.10487 | -134.57242 | 9298 ft | 247 kts | 295° |
| 2026-04-16 22:10 | 58.11227 | -134.60152 | 8974 ft | 245 kts | 294° |
| 2026-04-16 22:10 | 58.11954 | -134.63026 | 8652 ft | 242 kts | 294° |
| 2026-04-16 22:11 | 58.12700 | -134.65909 | 8323 ft | 246 kts | 294° |
| 2026-04-16 22:11 | 58.13464 | -134.68832 | 7991 ft | 250 kts | 294° |
| 2026-04-16 22:11 | 58.14234 | -134.71751 | 7648 ft | 248 kts | 293° |
| 2026-04-16 22:11 | 58.14975 | -134.74626 | 7315 ft | 246 kts | 293° |
| 2026-04-16 22:12 | 58.15717 | -134.77528 | 6968 ft | 245 kts | 293° |
| 2026-04-16 22:12 | 58.16448 | -134.80429 | 6636 ft | 243 kts | 293° |
| 2026-04-16 22:12 | 58.17181 | -134.83313 | 6299 ft | 244 kts | 292° |
| 2026-04-16 22:12 | 58.17895 | -134.86232 | 5964 ft | 249 kts | 292° |
| 2026-04-16 22:13 | 58.18649 | -134.89160 | 5730 ft | 244 kts | 293° |
| 2026-04-16 22:13 | 58.19371 | -134.91981 | 5645 ft | 232 kts | 292° |
| 2026-04-16 22:13 | 58.20055 | -134.94673 | 5587 ft | 222 kts | 293° |
| 2026-04-16 22:13 | 58.20717 | -134.97270 | 5516 ft | 217 kts | 292° |
| 2026-04-16 22:14 | 58.21363 | -134.99860 | 5433 ft | 217 kts | 293° |
| 2026-04-16 22:14 | 58.22067 | -135.02347 | 5337 ft | 217 kts | 301° |
| 2026-04-16 22:14 | 58.23175 | -135.04317 | 5239 ft | 226 kts | 332° |
| 2026-04-16 22:14 | 58.24745 | -135.04781 | 5001 ft | 234 kts | 5° |
| 2026-04-16 22:15 | 58.26344 | -135.04179 | 4732 ft | 235 kts | 12° |
| 2026-04-16 22:15 | 58.27916 | -135.03502 | 4496 ft | 235 kts | 10° |
| 2026-04-16 22:15 | 58.29526 | -135.02925 | 4243 ft | 235 kts | 9° |
| 2026-04-16 22:15 | 58.31129 | -135.02416 | 3988 ft | 233 kts | 8° |
| 2026-04-16 22:16 | 58.32713 | -135.01904 | 3752 ft | 227 kts | 9° |
| 2026-04-16 22:16 | 58.34179 | -135.01120 | 3606 ft | 217 kts | 25° |
| 2026-04-16 22:16 | 58.35274 | -134.99291 | 3470 ft | 205 kts | 62° |
| 2026-04-16 22:16 | 58.35684 | -134.96837 | 3360 ft | 192 kts | 85° |
| 2026-04-16 22:17 | 58.35758 | -134.94334 | 3245 ft | 188 kts | 93° |
| 2026-04-16 22:17 | 58.35755 | -134.91859 | 3087 ft | 186 kts | 93° |
| 2026-04-16 22:17 | 58.35756 | -134.89442 | 2938 ft | 183 kts | 93° |
| 2026-04-16 22:17 | 58.35767 | -134.87010 | 2796 ft | 183 kts | 92° |
| 2026-04-16 22:18 | 58.35783 | -134.84586 | 2666 ft | 181 kts | 92° |
| 2026-04-16 22:18 | 58.35786 | -134.82213 | 2407 ft | 183 kts | 93° |
| 2026-04-16 22:18 | 58.35791 | -134.79771 | 2129 ft | 185 kts | 92° |
| 2026-04-16 22:18 | 58.35798 | -134.77331 | 1872 ft | 186 kts | 92° |
| 2026-04-16 22:19 | 58.35806 | -134.74950 | 1615 ft | 174 kts | 92° |
| 2026-04-16 22:19 | 58.35815 | -134.72710 | 1384 ft | 162 kts | 92° |
| 2026-04-16 22:19 | 58.35821 | -134.70680 | 1180 ft | 148 kts | 92° |
| 2026-04-16 22:19 | 58.35825 | -134.68788 | 938 ft | 137 kts | 92° |
| 2026-04-16 22:20 | 58.35828 | -134.67058 | 739 ft | 126 kts | 92° |
| 2026-04-16 22:20 | 58.35840 | -134.65413 | 529 ft | 121 kts | 90° |
| 2026-04-16 22:20 | 58.35865 | -134.63873 | 408 ft | 115 kts | 91° |
| 2026-04-16 22:20 | 58.35893 | -134.62334 | 290 ft | 116 kts | 89° |
| 2026-04-16 22:21 | 58.35908 | -134.60786 | 150 ft | 116 kts | 97° |
| 2026-04-16 22:21 | 58.35728 | -134.59290 | -15 ft | 115 kts | 105° |
| 2026-04-16 22:21 | 58.35562 | -134.58089 | -23 ft | 62 kts | 105° |
| 2026-04-16 22:21 | 58.35494 | -134.57611 | -25 ft | 21 kts | 105° |
| 2026-04-16 22:22 | 58.35466 | -134.57376 | -25 ft | 12 kts | 82° |
| 2026-04-16 22:22 | 58.35502 | -134.57277 | -25 ft | 8 kts | 21° |
| 2026-04-16 22:22 | 58.35560 | -134.57306 | -26 ft | 9 kts | 306° |
| 2026-04-16 22:22 | 58.35578 | -134.57420 | -24 ft | 8 kts | 280° |
| 2026-04-16 22:23 | 58.35594 | -134.57538 | -23 ft | 9 kts | 285° |
| 2026-04-16 22:23 | 58.35614 | -134.57672 | -23 ft | 11 kts | 285° |
| 2026-04-16 22:23 | 58.35642 | -134.57871 | -22 ft | 17 kts | 284° |
| 2026-04-16 22:23 | 58.35675 | -134.58105 | -21 ft | 18 kts | 284° |
| 2026-04-16 22:24 | 58.35697 | -134.58258 | -22 ft | 7 kts | 291° |
| 2026-04-16 22:24 | 58.35726 | -134.58296 | -22 ft | 3 kts | 350° |
| 2026-04-16 22:24 | 58.35758 | -134.58318 | -22 ft | 8 kts | 324° |
| 2026-04-16 22:24 | 58.35786 | -134.58389 | -23 ft | 3 kts | 335° |
| 2026-04-16 22:25 | 58.35812 | -134.58382 | -23 ft | 3 kts | 16° |
| 2026-04-16 22:25 | 58.35830 | -134.58371 | -22 ft | 1 kts | 17° |
| 2026-04-16 22:25 | 58.35831 | -134.58371 | -22 ft | 0 kts | 17° |